Terminal Aerodrome Forecast
Issued by NWS Charleston, WV

Current Version | Previous Version | Text Only | Print | Product List | Glossary Off
Versions: 1 2 3 4 5 6 7 8 9 10 11 12 13 14 15 16 17 18 19 20 21 22 23 24 25 26 27 28 29

000
FTUS41 KRLX 191300 AAA
TAFEKN
TAF AMD
KEKN 191317Z 1913/2012 00000KT 1SM BR OVC002
     FM191400 VRB02KT 3SM BR SCT002
     FM191430 13004KT P6SM SCT035
     FM191900 14006KT P6SM BKN035
     FM192200 14005KT P6SM SCT035
     FM200300 15004KT 6SM BR FEW035
     FM200700 00000KT 5SM BR SCT025=

USA.gov is the U.S. government's official web portal to all federal, state and local government web resources and services.